Terminal Aerodrome Forecast
Issued by NWS

Home | Current Version | Previous Version | Text Only | Print | Product List | Glossary On
Versions: 1 2 3 4 5 6 7 8 9 10 11 12 13 14 15
000
FTUS46 KMTR 231727
TAFOAK
TAF
KOAK 231727Z 2318/2424 28008KT P6SM FEW015
     FM232100 29014G19KT P6SM FEW015
     FM240600 30010KT P6SM BKN012
     FM240800 28004KT P6SM OVC007
     FM241700 29007KT P6SM SCT010
     FM242100 30013KT P6SM FEW015=

USA.gov is the U.S. government's official web portal to all federal, state and local government web resources and services.